Time;durP1;ratioP1;P1;durP2;ratioP2;P2;SDS_P1;SDS_P2;PMS_P1;PMS_P2;Temp;Humidity;BMP_temperature;BMP_pressure;BME280_temperature;BME280_humidity;BME280_pressure;Samples;Min_cycle;Max_cycle;Signal;HPM_P1;HPM_P2
2024/03/15 00:02:10;;;;;;;18.70;7.40;;;;;;;12.04;100.00;100565.00;5047099;28;20475;-71
2024/03/15 00:04:36;;;;;;;19.25;7.57;;;;;;;12.03;100.00;100565.91;5043505;28;20026;-72
2024/03/15 00:07:03;;;;;;;19.42;7.60;;;;;;;12.01;100.00;100563.28;5047202;28;20163;-67
2024/03/15 00:09:28;;;;;;;19.77;7.72;;;;;;;11.96;100.00;100565.06;5044284;28;20029;-79
2024/03/15 00:11:55;;;;;;;19.75;7.63;;;;;;;11.95;100.00;100562.41;5044872;28;20037;-79
2024/03/15 00:14:21;;;;;;;20.30;7.50;;;;;;;11.96;100.00;100559.75;5045907;28;20380;-80
2024/03/15 00:16:47;;;;;;;19.75;7.82;;;;;;;11.90;100.00;100554.47;5044073;28;20037;-78
2024/03/15 00:19:12;;;;;;;19.80;7.60;;;;;;;11.88;100.00;100561.53;5046743;28;20025;-75
2024/03/15 00:21:37;;;;;;;18.90;7.68;;;;;;;11.85;100.00;100567.75;5043445;28;20060;-71
2024/03/15 00:24:03;;;;;;;19.75;7.78;;;;;;;11.81;100.00;100554.50;5045821;28;20175;-70
2024/03/15 00:26:32;;;;;;;20.25;7.63;;;;;;;11.80;100.00;100558.94;5043593;28;20495;-71
2024/03/15 00:28:58;;;;;;;20.55;7.75;;;;;;;11.85;100.00;100559.78;5044833;28;20447;-66
2024/03/15 00:31:23;;;;;;;20.20;8.13;;;;;;;11.90;100.00;100553.56;5044026;28;20025;-69
2024/03/15 00:33:49;;;;;;;20.50;8.10;;;;;;;11.93;100.00;100556.22;5043653;28;20059;-66
2024/03/15 00:36:17;;;;;;;20.50;8.10;;;;;;;11.94;100.00;100550.06;5045415;28;20039;-67
2024/03/15 00:38:43;;;;;;;20.92;7.90;;;;;;;11.93;100.00;100550.94;5042489;28;20030;-66
2024/03/15 00:41:09;;;;;;;19.70;8.25;;;;;;;11.93;100.00;100558.88;5045884;28;20036;-66
2024/03/15 00:43:36;;;;;;;19.40;8.00;;;;;;;11.90;100.00;100553.56;5042331;28;20025;-67
2024/03/15 00:46:01;;;;;;;20.48;7.88;;;;;;;11.86;100.00;100550.06;5044886;28;20594;-69
2024/03/15 00:48:27;;;;;;;20.40;8.00;;;;;;;11.84;100.00;100550.06;5043449;28;20025;-70
2024/03/15 00:50:52;;;;;;;20.50;8.02;;;;;;;11.79;100.00;100549.22;5043360;28;20033;-66
2024/03/15 00:53:18;;;;;;;20.20;8.23;;;;;;;11.76;100.00;100543.94;5044640;28;20039;-65
2024/03/15 00:55:43;;;;;;;19.75;7.93;;;;;;;11.77;100.00;100544.84;5042366;28;20026;-66
2024/03/15 00:58:08;;;;;;;21.00;8.23;;;;;;;11.78;100.00;100543.91;5043996;28;20036;-65
2024/03/15 01:00:34;;;;;;;19.83;8.13;;;;;;;11.75;100.00;100544.84;5042104;28;20031;-67
2024/03/15 01:02:59;;;;;;;20.92;8.07;;;;;;;11.74;100.00;100542.22;5044440;28;20423;-66
2024/03/15 01:05:25;;;;;;;19.88;8.10;;;;;;;11.74;100.00;100535.13;5043428;28;20061;-68
2024/03/15 01:07:50;;;;;;;21.13;8.70;;;;;;;11.77;100.00;100536.88;5042873;28;20461;-68
2024/03/15 01:10:15;;;;;;;20.40;7.95;;;;;;;11.77;100.00;100537.75;5044605;28;20092;-67
2024/03/15 01:12:41;;;;;;;20.88;8.10;;;;;;;11.79;100.00;100530.66;5041719;28;20129;-67
2024/03/15 01:15:07;;;;;;;19.10;7.60;;;;;;;11.81;100.00;100535.97;5045199;28;20033;-66
2024/03/15 01:17:32;;;;;;;20.75;7.72;;;;;;;11.80;100.00;100527.16;5041983;28;20025;-66
2024/03/15 01:19:58;;;;;;;19.45;7.75;;;;;;;11.85;100.00;100535.06;5043769;28;20112;-66
2024/03/15 01:22:23;;;;;;;19.67;7.97;;;;;;;11.89;100.00;100525.34;5043194;28;20049;-66
2024/03/15 01:24:48;;;;;;;20.30;7.50;;;;;;;11.89;100.00;100525.34;5041711;28;20450;-68
2024/03/15 01:27:14;;;;;;;19.83;7.50;;;;;;;11.96;100.00;100527.09;5044400;28;20037;-68
2024/03/15 01:29:39;;;;;;;19.20;7.43;;;;;;;11.96;100.00;100519.16;5040506;28;20488;-67
2024/03/15 01:32:04;;;;;;;20.23;7.90;;;;;;;11.97;100.00;100515.59;5044318;28;20468;-66
2024/03/15 01:34:30;;;;;;;21.20;7.85;;;;;;;11.98;100.00;100515.56;5042032;28;20078;-66
2024/03/15 01:36:56;;;;;;;19.95;7.40;;;;;;;12.03;100.00;100507.63;5043192;28;20033;-66
2024/03/15 01:39:24;;;;;;;19.55;7.90;;;;;;;12.03;100.00;100510.28;5038138;28;20056;-68
2024/03/15 01:41:49;;;;;;;20.15;7.50;;;;;;;12.03;100.00;100518.22;5042252;28;20029;-72
2024/03/15 01:44:15;;;;;;;20.08;7.40;;;;;;;11.99;100.00;100513.84;5044494;28;20036;-74
2024/03/15 01:46:40;;;;;;;19.80;7.68;;;;;;;11.99;100.00;100508.53;5040949;28;20025;-68
2024/03/15 01:49:06;;;;;;;20.20;7.40;;;;;;;11.99;100.00;100511.19;5044736;28;20120;-79
2024/03/15 01:51:32;;;;;;;20.80;7.43;;;;;;;12.01;100.00;100509.38;5042624;28;20102;-72
2024/03/15 01:54:00;;;;;;;19.35;7.07;;;;;;;12.05;100.00;100511.13;5043739;28;20396;-71
2024/03/15 01:56:26;;;;;;;19.10;7.03;;;;;;;12.02;100.00;100498.78;5043458;28;20029;-72
2024/03/15 01:58:52;;;;;;;21.02;7.07;;;;;;;12.09;100.00;100512.88;5043093;28;20408;-78
2024/03/15 02:01:17;;;;;;;20.05;7.00;;;;;;;12.10;100.00;100508.44;5043101;28;20029;-75
2024/03/15 02:03:46;;;;;;;18.95;6.75;;;;;;;12.14;100.00;100505.75;5041780;28;20524;-71
2024/03/15 02:06:14;;;;;;;19.20;7.20;;;;;;;12.09;100.00;100510.22;5045064;28;20033;-70
2024/03/15 02:08:41;;;;;;;18.73;6.57;;;;;;;12.07;100.00;100504.03;5037757;28;20053;-75
2024/03/15 02:11:06;;;;;;;18.85;6.63;;;;;;;12.10;100.00;100508.44;5044734;28;20484;-77
2024/03/15 02:13:31;;;;;;;18.80;6.65;;;;;;;12.10;100.00;100509.34;5043039;28;20033;-73
2024/03/15 02:15:57;;;;;;;18.08;6.40;;;;;;;12.11;100.00;100512.84;5043967;28;20508;-79
2024/03/15 02:18:22;;;;;;;20.30;6.72;;;;;;;12.08;100.00;100510.25;5043901;28;20435;-79
2024/03/15 02:20:48;;;;;;;19.13;6.70;;;;;;;12.06;100.00;100512.00;5042521;28;20100;-76
2024/03/15 02:23:15;;;;;;;17.98;6.63;;;;;;;12.01;100.00;100514.69;5044284;28;20416;-78
2024/03/15 02:25:41;;;;;;;19.80;6.55;;;;;;;12.04;100.00;100514.66;5041775;28;20459;-77
2024/03/15 02:28:06;;;;;;;19.38;6.53;;;;;;;12.08;100.00;100511.09;5045351;28;20039;-79
2024/03/15 02:30:32;;;;;;;19.67;7.00;;;;;;;12.14;100.00;100511.06;5041721;28;20030;-79
2024/03/15 02:32:58;;;;;;;18.65;6.40;;;;;;;12.12;100.00;100507.56;5042935;28;20032;-66
2024/03/15 02:35:24;;;;;;;18.90;6.30;;;;;;;12.12;100.00;100510.19;5043400;28;20022;-68
2024/03/15 02:37:50;;;;;;;18.27;6.35;;;;;;;12.12;100.00;100502.25;5045447;28;20076;-67
2024/03/15 02:40:15;;;;;;;19.92;6.50;;;;;;;12.09;100.00;100507.56;5047812;28;20124;-67
2024/03/15 02:42:42;;;;;;;19.58;6.63;;;;;;;12.09;100.00;100514.66;5044506;28;20141;-70
2024/03/15 02:45:07;;;;;;;18.08;6.15;;;;;;;12.09;100.00;100512.00;5047828;28;20039;-73
2024/03/15 02:47:33;;;;;;;19.65;6.28;;;;;;;12.15;100.00;100512.81;5043791;28;20029;-68
2024/03/15 02:49:59;;;;;;;19.65;6.20;;;;;;;12.13;100.00;100504.03;5046731;28;20061;-66
2024/03/15 02:52:24;;;;;;;17.55;6.10;;;;;;;12.12;100.00;100504.03;5046014;28;20074;-66
2024/03/15 02:54:49;;;;;;;18.73;6.15;;;;;;;11.95;100.00;100510.31;5045279;28;20033;-66
2024/03/15 02:57:15;;;;;;;18.52;6.03;;;;;;;11.62;100.00;100506.06;5047404;28;20040;-66
2024/03/15 02:59:40;;;;;;;19.10;6.32;;;;;;;11.36;100.00;100512.38;5044208;28;20033;-65
2024/03/15 03:02:08;;;;;;;17.85;6.00;;;;;;;11.40;100.00;100521.16;5047612;28;20487;-66
2024/03/15 03:04:35;;;;;;;17.85;5.75;;;;;;;11.53;100.00;100512.28;5044548;28;20041;-69
2024/03/15 03:07:03;;;;;;;19.67;6.10;;;;;;;11.67;100.00;100525.47;5046448;28;20032;-71
2024/03/15 03:09:29;;;;;;;19.23;6.53;;;;;;;11.42;100.00;100524.69;5045299;28;20056;-66
2024/03/15 03:11:55;;;;;;;18.05;6.05;;;;;;;11.20;100.00;100534.47;5045391;28;20037;-67
2024/03/15 03:14:20;;;;;;;18.05;6.20;;;;;;;11.04;100.00;100544.19;5046250;28;20033;-66
2024/03/15 03:16:45;;;;;;;19.08;6.40;;;;;;;10.95;100.00;100537.16;5044593;28;20079;-66
2024/03/15 03:19:11;;;;;;;19.67;6.50;;;;;;;10.93;100.00;100539.81;5047342;28;20383;-66
2024/03/15 03:21:37;;;;;;;18.35;6.22;;;;;;;10.94;100.00;100536.31;5044117;28;20389;-66
2024/03/15 03:24:03;;;;;;;18.58;6.18;;;;;;;11.10;100.00;100545.09;5046323;28;20439;-66
2024/03/15 03:26:29;;;;;;;18.13;6.28;;;;;;;11.26;100.00;100539.75;5045062;28;20392;-66
2024/03/15 03:28:56;;;;;;;19.25;6.10;;;;;;;11.39;100.00;100546.75;5047955;28;20025;-73
2024/03/15 03:31:22;;;;;;;18.58;5.80;;;;;;;11.49;100.00;100527.31;5044746;28;20128;-69
2024/03/15 03:33:47;;;;;;;20.42;6.05;;;;;;;11.58;100.00;100531.69;5043339;28;20112;-72
2024/03/15 03:36:12;;;;;;;18.92;5.80;;;;;;;11.68;100.00;100529.88;5047715;28;20029;-79
2024/03/15 03:38:39;;;;;;;18.35;6.25;;;;;;;11.76;100.00;100541.28;5039603;28;20026;-79
2024/03/15 03:41:04;;;;;;;18.10;5.65;;;;;;;11.83;100.00;100536.84;5045333;28;20029;-70
2024/03/15 03:43:30;;;;;;;18.67;5.65;;;;;;;11.88;100.00;100542.97;5045002;28;20534;-69
2024/03/15 03:45:56;;;;;;;19.05;5.75;;;;;;;11.96;100.00;100532.41;5045309;28;20034;-69
2024/03/15 03:48:22;;;;;;;18.00;5.72;;;;;;;12.03;100.00;100539.41;5043782;28;20029;-66
2024/03/15 03:50:48;;;;;;;17.45;5.53;;;;;;;12.06;100.00;100534.09;5044335;28;20030;-67
2024/03/15 03:53:14;;;;;;;16.75;5.40;;;;;;;12.10;100.00;100534.94;5047108;28;20464;-75
2024/03/15 03:55:40;;;;;;;17.80;5.72;;;;;;;12.08;100.00;100531.44;5047461;28;20032;-70
2024/03/15 03:58:07;;;;;;;17.98;5.90;;;;;;;12.06;100.00;100535.84;5047641;28;20053;-69
2024/03/15 04:00:34;;;;;;;18.00;5.90;;;;;;;12.07;100.00;100535.84;5044347;28;20069;-66
2024/03/15 04:03:02;;;;;;;18.60;5.65;;;;;;;12.11;100.00;100539.34;5045944;28;20472;-76
2024/03/15 04:05:28;;;;;;;18.40;5.35;;;;;;;12.15;100.00;100539.31;5045239;28;20111;-73
2024/03/15 04:07:55;;;;;;;18.40;5.65;;;;;;;12.16;100.00;100534.91;5045049;28;20455;-68
2024/03/15 04:10:20;;;;;;;18.30;5.50;;;;;;;12.20;100.00;100542.84;5046003;28;20056;-75
2024/03/15 04:12:46;;;;;;;17.17;5.50;;;;;;;12.21;100.00;100539.25;5046942;28;20473;-78
2024/03/15 04:15:12;;;;;;;18.27;5.80;;;;;;;12.25;100.00;100540.13;5042343;28;20025;-79
2024/03/15 04:17:38;;;;;;;16.77;5.50;;;;;;;12.29;100.00;100539.22;5047135;28;20032;-79
2024/03/15 04:20:07;;;;;;;16.10;5.30;;;;;;;12.31;100.00;100544.53;5044739;28;20033;-79
2024/03/15 04:22:33;;;;;;;18.85;5.80;;;;;;;12.31;100.00;100539.22;5046167;28;20045;-78
2024/03/15 04:24:59;;;;;;;17.15;5.63;;;;;;;12.28;100.00;100544.53;5046716;28;20082;-77
2024/03/15 04:27:25;;;;;;;17.58;5.68;;;;;;;12.27;100.00;100532.19;5045550;28;20025;-79
2024/03/15 04:29:51;;;;;;;16.88;5.70;;;;;;;12.26;100.00;100536.59;5044738;28;20036;-77
2024/03/15 04:32:19;;;;;;;16.92;5.55;;;;;;;12.27;100.00;100532.19;5046017;28;20035;-79
2024/03/15 04:34:47;;;;;;;17.58;5.45;;;;;;;12.32;100.00;100540.97;5042051;28;20037;-76
2024/03/15 04:37:15;;;;;;;16.95;5.63;;;;;;;12.31;100.00;100533.91;5045842;28;20037;-67
2024/03/15 04:39:43;;;;;;;18.63;5.80;;;;;;;12.31;100.00;100534.78;5038396;28;20043;-68
2024/03/15 04:42:09;;;;;;;17.27;5.55;;;;;;;12.30;100.00;100533.03;5045926;28;20480;-67
2024/03/15 04:44:37;;;;;;;17.67;5.40;;;;;;;12.29;100.00;100533.94;5042869;28;20087;-66
2024/03/15 04:47:08;;;;;;;16.17;5.20;;;;;;;12.28;100.00;100526.88;5044824;28;20439;-69
2024/03/15 04:49:33;;;;;;;17.60;5.45;;;;;;;12.29;100.00;100533.03;5043325;28;20035;-67
2024/03/15 04:51:59;;;;;;;18.73;5.88;;;;;;;12.27;100.00;100529.53;5044097;28;20092;-69
2024/03/15 04:54:25;;;;;;;17.63;5.78;;;;;;;12.21;100.00;100527.81;5043848;28;20391;-67
2024/03/15 04:56:50;;;;;;;18.83;5.80;;;;;;;12.15;100.00;100528.72;5043093;28;20026;-68
2024/03/15 04:59:15;;;;;;;16.10;5.20;;;;;;;12.19;100.00;100534.91;5045349;28;20062;-66
2024/03/15 05:01:42;;;;;;;18.25;5.47;;;;;;;12.22;100.00;100532.22;5042095;28;20033;-67
2024/03/15 05:04:08;;;;;;;18.83;5.78;;;;;;;12.27;100.00;100534.81;5045584;28;20071;-66
2024/03/15 05:06:34;;;;;;;17.73;5.50;;;;;;;12.24;100.00;100533.06;5042400;28;20044;-66
2024/03/15 05:08:59;;;;;;;17.08;5.65;;;;;;;12.26;100.00;100530.41;5043775;28;20033;-67
2024/03/15 05:11:24;;;;;;;18.35;5.80;;;;;;;12.27;100.00;100534.81;5044228;28;20075;-66
2024/03/15 05:13:50;;;;;;;17.95;5.80;;;;;;;12.22;100.00;100537.50;5041198;28;20037;-68
2024/03/15 05:16:15;;;;;;;16.70;5.65;;;;;;;12.23;100.00;100541.03;5044788;28;20037;-66
2024/03/15 05:18:41;;;;;;;16.80;5.75;;;;;;;12.16;100.00;100541.09;5041854;28;20079;-66
2024/03/15 05:21:06;;;;;;;19.05;5.80;;;;;;;12.14;100.00;100541.97;5044508;28;20037;-67
2024/03/15 05:23:32;;;;;;;19.55;6.15;;;;;;;12.18;100.00;100539.28;5042568;28;20021;-67
2024/03/15 05:25:57;;;;;;;18.73;5.90;;;;;;;12.18;100.00;100541.06;5043109;28;20025;-66
2024/03/15 05:28:23;;;;;;;18.65;5.55;;;;;;;12.18;100.00;100531.34;5043653;28;20109;-66
2024/03/15 05:30:48;;;;;;;17.30;5.63;;;;;;;12.17;100.00;100536.66;5042377;28;20029;-69
2024/03/15 05:33:14;;;;;;;18.20;6.03;;;;;;;12.16;100.00;100541.09;5044993;28;20063;-67
2024/03/15 05:35:40;;;;;;;18.25;5.45;;;;;;;12.15;100.00;100533.16;5037523;28;20583;-80
2024/03/15 05:38:06;;;;;;;16.83;5.25;;;;;;;12.16;100.00;100537.56;5044359;28;20028;-78
2024/03/15 05:40:32;;;;;;;18.17;5.60;;;;;;;12.17;100.00;100553.47;5042274;28;20037;-78
2024/03/15 05:42:58;;;;;;;17.67;5.55;;;;;;;12.17;100.00;100541.97;5043098;28;20033;-75
2024/03/15 05:45:24;;;;;;;16.33;5.45;;;;;;;12.12;100.00;100554.38;5043518;28;20025;-77
2024/03/15 05:47:50;;;;;;;17.15;5.55;;;;;;;12.13;100.00;100545.50;5041906;28;20038;-74
2024/03/15 05:50:15;;;;;;;17.48;5.32;;;;;;;12.18;100.00;100549.03;5044254;28;20032;-70
2024/03/15 05:52:41;;;;;;;16.85;5.30;;;;;;;12.17;100.00;100552.56;5041252;28;20068;-73
2024/03/15 05:55:08;;;;;;;18.25;5.68;;;;;;;12.18;100.00;100546.38;5044280;28;20029;-78
2024/03/15 05:57:34;;;;;;;17.23;5.40;;;;;;;12.16;100.00;100549.03;5041650;28;20112;-78
2024/03/15 06:00:09;;;;;;;17.30;5.30;;;;;;;12.17;100.00;100553.47;5041983;28;20065;-75
2024/03/15 06:02:35;;;;;;;16.80;5.40;;;;;;;12.17;100.00;100564.06;5041495;28;20061;-75
2024/03/15 06:05:00;;;;;;;18.02;5.10;;;;;;;12.17;100.00;100550.81;5044255;28;20055;-74
2024/03/15 06:07:26;;;;;;;17.40;5.10;;;;;;;12.19;100.00;100556.97;5043827;28;20029;-73
2024/03/15 06:09:51;;;;;;;17.75;5.00;;;;;;;12.24;100.00;100571.97;5045468;28;20490;-74
2024/03/15 06:12:16;;;;;;;16.10;5.00;;;;;;;12.28;100.00;100568.41;5038121;28;20392;-78
2024/03/15 06:14:42;;;;;;;17.45;5.13;;;;;;;12.26;100.00;100559.56;5045565;28;20140;-75
2024/03/15 06:17:07;;;;;;;16.83;4.95;;;;;;;12.26;100.00;100564.88;5041225;28;20025;-66
2024/03/15 06:19:33;;;;;;;16.50;5.03;;;;;;;12.27;100.00;100566.63;5043402;28;20029;-67
2024/03/15 06:21:59;;;;;;;15.95;4.93;;;;;;;12.26;100.00;100562.22;5042063;28;20057;-66
2024/03/15 06:24:25;;;;;;;15.98;5.05;;;;;;;12.27;100.00;100558.69;5044727;28;20096;-66
2024/03/15 06:26:54;;;;;;;16.48;4.97;;;;;;;12.29;100.00;100573.69;5041272;28;20033;-67
2024/03/15 06:29:23;;;;;;;17.23;5.28;;;;;;;12.32;100.00;100565.72;5043738;28;20487;-67
2024/03/15 06:31:52;;;;;;;17.13;4.90;;;;;;;12.38;100.00;100562.13;5041011;28;20034;-69
2024/03/15 06:34:22;;;;;;;15.38;4.88;;;;;;;12.36;100.00;100561.25;5043730;28;20025;-69
2024/03/15 06:36:53;;;;;;;15.90;4.90;;;;;;;12.36;100.00;100572.75;5039881;28;20022;-66
2024/03/15 06:39:30;;;;;;;16.25;4.88;;;;;;;12.32;100.00;100567.47;5043472;28;20120;-68
2024/03/15 06:41:55;;;;;;;17.83;4.93;;;;;;;12.35;100.00;100575.41;5041958;28;20033;-67
2024/03/15 06:44:25;;;;;;;16.05;4.50;;;;;;;12.37;100.00;100566.53;5043111;28;20025;-70
2024/03/15 06:50:08;;;;;;;15.63;4.75;;;;;;;12.39;100.00;100571.81;4985479;28;20038;-66
2024/03/15 06:52:36;;;;;;;17.23;4.90;;;;;;;12.38;100.00;100567.44;5037548;28;20044;-66
2024/03/15 06:55:04;;;;;;;15.40;4.55;;;;;;;12.36;100.00;100572.75;5043074;28;20029;-66
2024/03/15 06:57:29;;;;;;;16.80;4.88;;;;;;;12.41;100.00;100585.06;5041860;28;20021;-66
2024/03/15 06:59:55;;;;;;;18.08;4.97;;;;;;;12.43;100.00;100586.81;5041507;28;20095;-68
2024/03/15 07:02:21;;;;;;;16.00;4.60;;;;;;;12.49;100.00;100580.59;5043177;28;20434;-66
2024/03/15 07:04:49;;;;;;;16.58;4.65;;;;;;;12.54;100.00;100590.28;5040267;28;20026;-68
2024/03/15 07:07:15;;;;;;;14.90;4.78;;;;;;;12.60;100.00;100583.19;5043881;28;20369;-66
2024/03/15 07:09:40;;;;;;;15.07;4.70;;;;;;;12.72;100.00;100588.38;5040520;28;20084;-66
2024/03/15 07:12:06;;;;;;;13.77;4.50;;;;;;;12.85;100.00;100590.00;5044279;28;20120;-68
2024/03/15 07:14:31;;;;;;;16.70;4.95;;;;;;;13.00;100.00;100593.41;5042891;28;20033;-80
2024/03/15 07:16:57;;;;;;;15.50;4.57;;;;;;;13.08;100.00;100592.44;5042742;28;20061;-79
2024/03/15 07:19:22;;;;;;;14.13;4.55;;;;;;;13.12;100.00;100598.63;5041018;28;20116;-66
2024/03/15 07:21:47;;;;;;;16.30;4.60;;;;;;;13.15;100.00;100597.69;5043392;28;20076;-78
2024/03/15 07:24:13;;;;;;;15.93;4.78;;;;;;;13.14;100.00;100593.31;5044508;28;20026;-78
2024/03/15 07:26:39;;;;;;;15.23;4.70;;;;;;;13.04;100.00;100590.72;5047650;28;20044;-78
2024/03/15 07:29:05;;;;;;;14.10;4.53;;;;;;;13.04;100.00;100600.47;5045640;28;20074;-80
2024/03/15 07:31:31;;;;;;;17.88;4.60;;;;;;;13.07;100.00;100596.00;5046353;28;20535;-78
2024/03/15 07:33:56;;;;;;;15.82;4.70;;;;;;;13.07;100.00;100603.09;5046323;28;20029;-80
2024/03/15 07:36:24;;;;;;;15.95;4.70;;;;;;;13.11;100.00;100562.34;5045559;28;20025;-80
2024/03/15 07:38:51;;;;;;;17.38;4.70;;;;;;;13.23;100.00;100591.41;5046766;28;20033;-67
2024/03/15 07:41:17;;;;;;;13.68;4.50;;;;;;;13.35;100.00;100597.53;5043611;28;20053;-67
2024/03/15 07:43:43;;;;;;;18.05;4.80;;;;;;;13.36;100.00;100601.94;5047355;28;20060;-67
2024/03/15 07:46:09;;;;;;;14.35;4.82;;;;;;;13.30;100.00;100596.69;5043820;28;20056;-68
2024/03/15 07:48:37;;;;;;;14.60;4.50;;;;;;;13.35;100.00;100601.06;5046166;28;20446;-67
2024/03/15 07:51:03;;;;;;;16.38;4.80;;;;;;;13.45;100.00;100604.47;5044501;28;20040;-69
2024/03/15 07:53:28;;;;;;;15.50;4.57;;;;;;;13.37;100.00;100598.41;5045094;28;20033;-66
2024/03/15 07:55:54;;;;;;;15.65;4.63;;;;;;;13.31;100.00;100604.63;5045582;28;20025;-79
2024/03/15 07:58:19;;;;;;;14.27;4.40;;;;;;;13.41;100.00;100608.97;5047466;28;20438;-66
2024/03/15 08:00:45;;;;;;;16.02;4.60;;;;;;;13.43;100.00;100603.63;5043145;28;20029;-66
2024/03/15 08:03:10;;;;;;;14.40;4.30;;;;;;;13.47;100.00;100612.44;5046421;28;20078;-77
2024/03/15 08:05:38;;;;;;;16.73;4.60;;;;;;;13.50;100.00;100617.69;5043880;28;20536;-79
2024/03/15 08:08:05;;;;;;;16.17;4.13;;;;;;;13.54;100.00;100632.72;5042844;28;20043;-79
2024/03/15 08:10:33;;;;;;;14.60;4.20;;;;;;;13.57;100.00;100609.66;5044008;28;20472;-66
2024/03/15 08:12:59;;;;;;;18.02;4.50;;;;;;;13.66;100.00;100615.75;5042593;28;20116;-69
2024/03/15 08:15:31;;;;;;;14.70;4.00;;;;;;;13.69;100.00;100621.03;5045191;28;20547;-68
2024/03/15 08:17:57;;;;;;;16.73;4.38;;;;;;;13.68;100.00;100613.97;5046892;28;20108;-67
2024/03/15 08:20:22;;;;;;;17.38;4.10;;;;;;;13.63;100.00;100613.13;5044464;28;20116;-68
2024/03/15 08:22:47;;;;;;;13.88;3.90;;;;;;;13.65;100.00;100606.03;5046122;28;20053;-67
2024/03/15 08:25:13;;;;;;;12.50;3.60;;;;;;;13.64;100.00;100617.56;5042768;28;20056;-66
2024/03/15 08:27:41;;;;;;;13.95;4.10;;;;;;;13.60;100.00;100617.59;5045926;28;20403;-69
2024/03/15 08:30:08;;;;;;;14.40;3.92;;;;;;;13.52;100.00;100608.84;5043100;28;20032;-69
2024/03/15 08:32:33;;;;;;;14.40;3.80;;;;;;;13.52;100.00;100610.63;5044549;28;20479;-67
2024/03/15 08:34:59;;;;;;;12.63;3.70;;;;;;;13.62;100.00;100616.72;5043926;28;20040;-70
2024/03/15 08:37:25;;;;;;;13.20;3.72;;;;;;;13.68;100.00;100619.28;5043447;28;20035;-67
2024/03/15 08:39:52;;;;;;;14.02;3.78;;;;;;;13.74;100.00;100629.81;5045474;28;20506;-69
2024/03/15 08:42:17;;;;;;;14.90;4.10;;;;;;;13.57;100.00;100612.31;5042623;28;20491;-70
2024/03/15 08:44:43;;;;;;;16.92;4.15;;;;;;;12.98;100.00;100627.06;5045626;28;20037;-70
2024/03/15 08:47:08;;;;;;;14.85;4.30;;;;;;;12.70;100.00;100629.94;5042552;28;20032;-66
2024/03/15 08:49:35;;;;;;;16.15;4.50;;;;;;;12.42;100.00;100634.56;5044616;28;20037;-66
2024/03/15 08:52:01;;;;;;;15.82;5.07;;;;;;;12.09;100.00;100634.75;5043804;28;20059;-66
2024/03/15 08:54:27;;;;;;;16.67;5.00;;;;;;;11.89;100.00;100639.22;5042176;28;20021;-67
2024/03/15 08:56:53;;;;;;;18.15;5.60;;;;;;;11.70;100.00;100647.25;5045131;28;20033;-71
2024/03/15 08:59:18;;;;;;;17.60;5.63;;;;;;;11.63;100.00;100658.72;5042186;28;20033;-66
2024/03/15 09:01:44;;;;;;;19.15;5.78;;;;;;;11.58;100.00;100657.88;5045524;28;20029;-66
2024/03/15 09:04:09;;;;;;;17.90;5.45;;;;;;;11.58;100.00;100660.53;5041910;28;20025;-75
2024/03/15 09:06:35;;;;;;;18.13;5.68;;;;;;;11.56;100.00;100664.94;5044136;28;20041;-68
2024/03/15 09:09:07;;;;;;;19.20;5.80;;;;;;;11.55;100.00;100665.81;5042148;28;20112;-77
2024/03/15 09:11:32;;;;;;;17.88;5.97;;;;;;;11.54;100.00;100664.06;5043990;28;20076;-69
2024/03/15 09:13:58;;;;;;;19.25;6.03;;;;;;;11.61;100.00;100663.16;5042260;28;20053;-74
2024/03/15 09:16:23;;;;;;;17.33;5.03;;;;;;;11.62;100.00;100680.78;5042476;28;20029;-67
2024/03/15 09:18:49;;;;;;;14.77;4.68;;;;;;;11.64;100.00;100674.63;5044897;28;20140;-65
2024/03/15 09:21:14;;;;;;;15.98;4.68;;;;;;;11.64;100.00;100679.03;5041335;28;20033;-69
2024/03/15 09:23:39;;;;;;;16.33;4.40;;;;;;;11.75;100.00;100677.25;5043560;28;20442;-71
2024/03/15 09:26:06;;;;;;;16.52;4.40;;;;;;;11.73;100.00;100689.59;5042221;28;20143;-68
2024/03/15 09:28:37;;;;;;;18.63;5.00;;;;;;;11.71;100.00;100690.47;5042229;28;20416;-77
2024/03/15 09:31:08;;;;;;;16.95;4.72;;;;;;;11.71;100.00;100679.88;5041441;28;20395;-79
2024/03/15 09:33:34;;;;;;;17.60;4.63;;;;;;;11.73;100.00;100679.00;5043707;28;20029;-78
2024/03/15 09:36:04;;;;;;;15.35;4.50;;;;;;;11.74;100.00;100686.06;5042748;28;20053;-79
2024/03/15 09:38:30;;;;;;;17.33;4.75;;;;;;;11.80;100.00;100677.22;5041238;28;20040;-72
2024/03/15 09:40:59;;;;;;;16.25;4.30;;;;;;;11.94;100.00;100685.13;5042699;28;20025;-69
2024/03/15 09:43:26;;;;;;;14.90;4.03;;;;;;;12.05;100.00;100669.22;5043607;28;20025;-67
2024/03/15 09:45:53;;;;;;;16.80;4.20;;;;;;;12.66;100.00;100674.16;5040943;28;20116;-65
2024/03/15 09:48:21;;;;;;;16.67;4.00;;;;;;;13.33;100.00;100661.22;5044372;28;20036;-65
2024/03/15 09:50:48;;;;;;;15.07;3.67;;;;;;;13.72;100.00;100668.81;5045143;28;20021;-65
2024/03/15 09:53:14;;;;;;;12.00;3.40;;;;;;;14.25;100.00;100653.97;5036152;28;20032;-65
2024/03/15 09:55:40;;;;;;;14.93;3.35;;;;;;;14.80;100.00;100651.41;5044608;28;20025;-69
2024/03/15 09:58:07;;;;;;;13.65;3.33;;;;;;;15.18;100.00;100655.22;5040634;28;20112;-68
2024/03/15 10:00:33;;;;;;;13.45;3.10;;;;;;;15.57;100.00;100652.72;5043007;28;20025;-67
2024/03/15 10:02:58;;;;;;;14.52;3.20;;;;;;;16.03;100.00;100643.81;5042929;28;20036;-68
2024/03/15 10:05:24;;;;;;;12.80;3.15;;;;;;;16.61;100.00;100654.06;5041758;28;20022;-68
2024/03/15 10:07:50;;;;;;;15.52;3.33;;;;;;;16.76;100.00;100643.94;5043859;28;20029;-72
2024/03/15 10:10:17;;;;;;;13.93;3.10;;;;;;;17.08;100.00;100651.19;5040852;28;20083;-68
2024/03/15 10:12:44;;;;;;;15.18;3.20;;;;;;;16.74;100.00;100662.66;5044168;28;20499;-70
2024/03/15 10:15:16;;;;;;;12.77;3.33;;;;;;;16.45;100.00;100631.34;5041190;28;20025;-66
2024/03/15 10:17:43;;;;;;;12.82;3.15;;;;;;;15.86;100.00;100656.63;5042890;28;20021;-66
2024/03/15 10:20:16;;;;;;;13.77;3.25;;;;;;;15.67;100.00;100648.97;5041327;28;20038;-65
2024/03/15 10:22:41;;;;;;;13.15;3.50;;;;;;;15.67;100.00;100630.31;5043820;28;20403;-66
2024/03/15 10:25:15;;;;;;;15.15;3.28;;;;;;;15.60;100.00;100639.34;5041605;28;20037;-66
2024/03/15 10:27:43;;;;;;;13.98;3.20;;;;;;;16.16;100.00;100636.44;5044014;28;20048;-65
2024/03/15 10:30:22;;;;;;;13.70;3.10;;;;;;;16.51;100.00;100639.19;5041139;28;20030;-71
2024/03/15 10:32:49;;;;;;;12.77;3.00;;;;;;;16.23;100.00;100633.63;5037557;28;20121;-66
2024/03/15 10:35:16;;;;;;;10.50;3.10;;;;;;;16.00;100.00;100646.56;5043988;28;20476;-69
2024/03/15 10:37:45;;;;;;;12.88;2.75;;;;;;;15.66;100.00;100647.19;5040903;28;20472;-74
2024/03/15 10:40:15;;;;;;;14.18;3.08;;;;;;;15.49;100.00;100651.97;5043985;28;20037;-69
2024/03/15 10:42:46;;;;;;;13.57;2.88;;;;;;;15.25;100.00;100634.69;5040715;28;20064;-72
2024/03/15 10:45:13;;;;;;;11.68;2.75;;;;;;;15.31;100.00;100632.78;5043848;28;20544;-71
2024/03/15 10:47:46;;;;;;;9.88;2.67;;;;;;;15.33;100.00;100641.63;5040936;28;20041;-73
2024/03/15 10:50:11;;;;;;;;;;;;;;;15.40;100.00;100633.53;5044139;28;20520;-67
2024/03/15 10:52:40;;;;;;;9.83;2.50;;;;;;;15.19;100.00;100632.13;5041514;28;19960;-66
2024/03/15 10:55:16;;;;;;;11.32;2.67;;;;;;;15.03;100.00;100634.16;5043301;28;20623;-75
2024/03/15 10:57:41;;;;;;;11.25;2.72;;;;;;;14.88;100.00;100622.91;5043691;28;20099;-78
2024/03/15 11:00:15;;;;;;;11.05;2.70;;;;;;;14.76;100.00;100634.63;5045619;28;20469;-74
2024/03/15 11:02:43;;;;;;;12.15;2.72;;;;;;;14.60;100.00;100625.09;5044589;28;20025;-78
2024/03/15 11:05:21;;;;;;;12.70;2.85;;;;;;;14.52;100.00;100638.53;5047245;28;20061;-69
2024/03/15 11:07:48;;;;;;;11.52;2.60;;;;;;;14.38;100.00;100638.72;5040471;28;20078;-76
2024/03/15 11:10:14;;;;;;;11.45;2.55;;;;;;;14.27;100.00;100633.56;5047389;28;20472;-78